Time;durP1;ratioP1;P1;durP2;ratioP2;P2;SDS_P1;SDS_P2;PMS_P1;PMS_P2;Temp;Humidity;BMP_temperature;BMP_pressure;BME280_temperature;BME280_humidity;BME280_pressure;Samples;Min_cycle;Max_cycle;Signal;HPM_P1;HPM_P2
2022/03/01 00:00:34;;;;;;;20.52;10.38;;;;;;;4.31;58.39;102728.34;5045065;28;20123;-73
2022/03/01 00:02:59;;;;;;;21.35;10.85;;;;;;;4.21;58.30;102722.19;5062926;28;20048;-72
2022/03/01 00:05:25;;;;;;;23.65;11.10;;;;;;;4.17;59.23;102743.75;5043732;28;20049;-73
2022/03/01 00:07:50;;;;;;;22.45;10.73;;;;;;;4.13;58.96;102740.56;5042453;28;20111;-72
2022/03/01 00:10:15;;;;;;;22.35;10.88;;;;;;;4.11;58.77;102732.16;5042215;28;20051;-72
2022/03/01 00:12:41;;;;;;;21.77;10.43;;;;;;;3.94;59.60;102724.72;5061986;28;20028;-73
2022/03/01 00:15:07;;;;;;;20.85;10.65;;;;;;;4.12;59.57;102738.13;5043021;28;20031;-71
2022/03/01 00:17:33;;;;;;;22.52;10.70;;;;;;;4.15;59.29;102755.84;5044097;28;20484;-71
2022/03/01 00:19:58;;;;;;;19.15;10.10;;;;;;;4.11;59.68;102744.97;5052112;28;20083;-71
2022/03/01 00:22:23;;;;;;;21.00;11.30;;;;;;;3.89;59.75;102714.81;5034373;28;20559;-72
2022/03/01 00:24:49;;;;;;;17.33;10.82;;;;;;;4.10;60.05;102745.88;5052341;28;20036;-71
2022/03/01 00:27:14;;;;;;;20.17;10.25;;;;;;;4.07;59.82;102740.97;5052089;28;20029;-72
2022/03/01 00:29:39;;;;;;;20.98;11.05;;;;;;;4.05;59.99;102743.59;5035165;28;20174;-71
2022/03/01 00:32:05;;;;;;;22.42;10.82;;;;;;;4.01;59.92;102741.34;5035669;28;20017;-70
2022/03/01 00:34:30;;;;;;;21.48;10.40;;;;;;;3.97;60.07;102747.56;5035445;28;20028;-72
2022/03/01 00:36:56;;;;;;;20.92;10.90;;;;;;;4.00;60.00;102752.47;5036001;28;20035;-71
2022/03/01 00:39:21;;;;;;;19.83;10.18;;;;;;;4.00;60.59;102763.56;5053992;28;20112;-71
2022/03/01 00:41:47;;;;;;;21.27;11.10;;;;;;;4.03;60.79;102771.06;5053980;28;20151;-70
2022/03/01 00:44:12;;;;;;;22.00;11.07;;;;;;;3.93;63.02;102769.97;5053810;28;20081;-71
2022/03/01 00:46:37;;;;;;;20.13;10.40;;;;;;;3.93;61.46;102764.84;5053960;28;20025;-70
2022/03/01 00:49:03;;;;;;;17.70;10.55;;;;;;;3.91;61.55;102756.44;5054211;28;20087;-71
2022/03/01 00:51:29;;;;;;;18.10;10.57;;;;;;;4.02;60.35;102764.28;5035895;28;20025;-70
2022/03/01 00:53:54;;;;;;;19.90;10.93;;;;;;;4.06;60.66;102760.63;5036017;28;20028;-72
2022/03/01 00:56:19;;;;;;;24.92;11.02;;;;;;;4.19;60.23;102775.19;5053672;28;20029;-71
2022/03/01 00:58:45;;;;;;;25.77;11.68;;;;;;;4.19;59.88;102765.78;5053726;28;20057;-70
2022/03/01 01:01:10;;;;;;;22.73;11.15;;;;;;;4.19;59.80;102770.09;5053625;28;20434;-71
2022/03/01 01:03:36;;;;;;;21.83;10.93;;;;;;;4.05;60.89;102771.75;5053607;28;20468;-71
2022/03/01 01:06:02;;;;;;;20.02;11.18;;;;;;;4.03;61.87;102768.50;5053332;28;20048;-71
2022/03/01 01:08:27;;;;;;;21.27;10.85;;;;;;;3.96;63.26;102771.50;5035715;28;20067;-71
2022/03/01 01:10:53;;;;;;;21.23;11.32;;;;;;;3.89;61.87;102772.81;5053757;28;20121;-70
2022/03/01 01:13:19;;;;;;;18.45;10.55;;;;;;;4.04;61.81;102770.13;5053633;28;20120;-70
2022/03/01 01:15:44;;;;;;;27.10;11.35;;;;;;;4.15;60.93;102766.09;5053275;28;20021;-71
2022/03/01 01:18:10;;;;;;;22.02;11.77;;;;;;;4.16;60.90;102770.28;5053592;28;20373;-71
2022/03/01 01:20:36;;;;;;;21.08;11.25;;;;;;;4.27;60.43;102760.19;5035440;28;20033;-70
2022/03/01 01:23:01;;;;;;;24.00;11.10;;;;;;;4.07;60.94;102759.69;5035620;28;20123;-71
2022/03/01 01:25:27;;;;;;;22.58;11.68;;;;;;;4.14;60.80;102754.19;5053387;28;20546;-71
2022/03/01 01:27:55;;;;;;;28.00;10.98;;;;;;;4.07;61.13;102746.09;5053266;28;20035;-71
2022/03/01 01:30:25;;;;;;;19.98;10.88;;;;;;;4.06;60.96;102741.91;5037449;28;20572;-75
2022/03/01 01:32:51;;;;;;;19.85;11.30;;;;;;;4.03;61.22;102742.91;5034984;28;20075;-72
2022/03/01 01:35:19;;;;;;;19.85;10.73;;;;;;;4.09;60.80;102751.13;5035244;28;20112;-70
2022/03/01 01:37:45;;;;;;;20.05;10.98;;;;;;;3.94;61.81;102753.72;5053226;28;20025;-71
2022/03/01 01:40:14;;;;;;;20.98;10.40;;;;;;;3.94;61.48;102743.47;5035173;28;20025;-72
2022/03/01 01:42:39;;;;;;;23.40;11.10;;;;;;;3.87;61.65;102749.88;5053130;28;20067;-72
2022/03/01 01:45:06;;;;;;;23.92;11.10;;;;;;;3.92;61.28;102755.53;5035177;28;20120;-72
2022/03/01 01:47:32;;;;;;;19.50;10.88;;;;;;;3.92;60.99;102752.16;5052982;28;20033;-72
2022/03/01 01:49:58;;;;;;;26.02;11.18;;;;;;;3.80;62.09;102739.22;5052948;28;20380;-72
2022/03/01 01:52:27;;;;;;;21.50;11.15;;;;;;;3.89;62.18;102752.34;5034995;28;20101;-71
2022/03/01 01:54:53;;;;;;;22.25;11.27;;;;;;;4.03;61.19;102750.59;5034857;28;20025;-70
2022/03/01 01:57:20;;;;;;;22.00;11.57;;;;;;;3.96;61.23;102749.31;5052863;28;20032;-72
2022/03/01 01:59:47;;;;;;;22.25;11.32;;;;;;;3.98;61.20;102751.78;5052859;28;20430;-72
2022/03/01 02:02:15;;;;;;;20.48;10.90;;;;;;;3.96;62.10;102756.97;5053080;28;20032;-72
2022/03/01 02:04:41;;;;;;;20.75;10.75;;;;;;;3.87;61.81;102749.88;5034557;28;20025;-71
2022/03/01 02:07:07;;;;;;;19.73;11.35;;;;;;;3.93;61.19;102754.63;5053131;28;20036;-70
2022/03/01 02:09:33;;;;;;;22.95;11.18;;;;;;;4.05;61.13;102747.91;5034908;28;20027;-70
2022/03/01 02:11:59;;;;;;;24.35;11.43;;;;;;;4.08;60.75;102745.16;5052817;28;20029;-70
2022/03/01 02:14:24;;;;;;;23.83;11.43;;;;;;;4.20;60.46;102746.13;5034918;28;20099;-71
2022/03/01 02:16:49;;;;;;;22.20;11.00;;;;;;;4.13;60.50;102739.75;5018305;28;20044;-71
2022/03/01 02:19:15;;;;;;;24.45;11.02;;;;;;;4.10;60.48;102740.78;5052771;28;20078;-70
2022/03/01 02:21:50;;;;;;;19.38;10.93;;;;;;;4.07;60.59;102741.78;5034945;28;20066;-71
2022/03/01 02:24:19;;;;;;;23.02;10.73;;;;;;;4.06;60.85;102737.59;5052623;28;20040;-71
2022/03/01 02:26:45;;;;;;;22.08;10.75;;;;;;;4.11;60.76;102736.47;5052749;28;20021;-71
2022/03/01 02:29:10;;;;;;;22.45;10.82;;;;;;;4.04;60.27;102738.59;5034893;28;20017;-70
2022/03/01 02:31:36;;;;;;;24.45;10.60;;;;;;;3.99;60.86;102738.88;5052660;28;20029;-71
2022/03/01 02:34:02;;;;;;;21.70;10.93;;;;;;;4.03;60.91;102734.41;5052626;28;20107;-71
2022/03/01 02:36:28;;;;;;;20.08;10.85;;;;;;;4.03;60.95;102735.22;5034648;28;20021;-71
2022/03/01 02:38:55;;;;;;;20.27;10.57;;;;;;;4.12;60.75;102738.94;5034753;28;20075;-70
2022/03/01 02:41:20;;;;;;;20.13;10.93;;;;;;;4.05;59.90;102730.81;5034597;28;20025;-70
2022/03/01 02:43:45;;;;;;;22.55;10.95;;;;;;;4.01;60.39;102726.00;5035945;28;20031;-70
2022/03/01 02:46:11;;;;;;;25.27;10.85;;;;;;;3.90;60.13;102703.66;5038402;28;20013;-71
2022/03/01 02:48:36;;;;;;;20.42;11.13;;;;;;;4.03;60.49;102727.56;5056190;28;20371;-71
2022/03/01 02:51:02;;;;;;;22.25;11.50;;;;;;;4.07;60.33;102708.53;5056132;28;20116;-71
2022/03/01 02:53:27;;;;;;;18.27;10.32;;;;;;;4.04;60.26;102718.94;5038167;28;20025;-71
2022/03/01 02:55:52;;;;;;;19.30;10.65;;;;;;;3.99;60.67;102718.41;5038026;28;20419;-70
2022/03/01 02:58:18;;;;;;;18.35;10.48;;;;;;;4.01;60.39;102710.66;5055975;28;20036;-70
2022/03/01 03:00:44;;;;;;;22.45;10.38;;;;;;;4.17;59.81;102713.91;5038108;28;20120;-70
2022/03/01 03:03:11;;;;;;;19.48;10.57;;;;;;;3.96;60.53;102718.59;5038073;28;20392;-70
2022/03/01 03:05:36;;;;;;;20.85;10.50;;;;;;;4.05;60.28;102719.75;5055640;28;20041;-71
2022/03/01 03:08:02;;;;;;;23.02;11.27;;;;;;;4.14;59.45;102726.03;5037973;28;20029;-70
2022/03/01 03:10:27;;;;;;;19.85;10.55;;;;;;;4.12;60.07;102723.59;5055894;28;20358;-71
2022/03/01 03:12:52;;;;;;;20.17;10.10;;;;;;;4.19;59.13;102711.22;5037867;28;20025;-71
2022/03/01 03:15:18;;;;;;;20.27;10.80;;;;;;;4.18;59.31;102705.28;5055696;28;20036;-71
2022/03/01 03:17:43;;;;;;;19.25;10.60;;;;;;;4.08;59.41;102706.78;5055578;28;20036;-71
2022/03/01 03:20:09;;;;;;;20.40;10.43;;;;;;;4.15;58.99;102704.66;5055519;28;20363;-71
2022/03/01 03:22:34;;;;;;;19.85;10.55;;;;;;;4.08;59.31;102704.22;5037598;28;20083;-71
2022/03/01 03:25:00;;;;;;;21.67;10.77;;;;;;;3.97;60.04;102702.34;5055523;28;20017;-70
2022/03/01 03:27:26;;;;;;;19.25;10.18;;;;;;;3.97;59.73;102701.50;5037502;28;20029;-70
2022/03/01 03:29:52;;;;;;;20.42;11.00;;;;;;;4.05;59.94;102702.66;5055328;28;20029;-70
2022/03/01 03:32:17;;;;;;;21.05;10.63;;;;;;;4.11;59.94;102701.47;5037685;28;20039;-72
2022/03/01 03:34:43;;;;;;;18.70;10.40;;;;;;;4.11;59.40;102696.34;5037436;28;20138;-72
2022/03/01 03:37:08;;;;;;;25.23;11.13;;;;;;;4.18;59.64;102692.50;5055408;28;20502;-72
2022/03/01 03:39:33;;;;;;;19.42;10.55;;;;;;;4.15;59.06;102699.56;5037217;28;20507;-72
2022/03/01 03:41:58;;;;;;;22.67;9.93;;;;;;;4.01;59.60;102693.56;5037319;28;20067;-71
2022/03/01 03:44:24;;;;;;;19.83;10.15;;;;;;;4.06;59.65;102703.50;5055110;28;20029;-70
2022/03/01 03:46:49;;;;;;;19.23;11.15;;;;;;;4.09;59.95;102707.63;5037201;28;20021;-70
2022/03/01 03:49:15;;;;;;;22.05;11.13;;;;;;;4.22;59.13;102703.34;5055082;28;20032;-70
2022/03/01 03:51:40;;;;;;;19.10;10.20;;;;;;;4.27;59.29;102709.00;5054923;28;20069;-70
2022/03/01 03:54:05;;;;;;;21.02;10.57;;;;;;;4.24;59.05;102710.00;5054962;28;20437;-70
2022/03/01 03:56:31;;;;;;;19.65;10.55;;;;;;;4.06;58.63;102681.31;5053970;28;20021;-71
2022/03/01 03:58:58;;;;;;;20.55;10.65;;;;;;;4.22;59.14;102708.47;5037179;28;20025;-71
2022/03/01 04:01:23;;;;;;;23.10;11.00;;;;;;;4.10;59.47;102704.94;5054848;28;20162;-71
2022/03/01 04:03:50;;;;;;;18.27;10.15;;;;;;;4.33;58.79;102700.91;5054739;28;20032;-72
2022/03/01 04:06:15;;;;;;;20.90;10.07;;;;;;;4.23;59.06;102702.41;5054517;28;20071;-71
2022/03/01 04:08:41;;;;;;;19.13;10.02;;;;;;;4.28;58.95;102700.38;5036764;28;20116;-70
2022/03/01 04:11:06;;;;;;;17.52;10.10;;;;;;;4.37;58.00;102706.66;5054633;28;20451;-70
2022/03/01 04:13:32;;;;;;;21.15;10.50;;;;;;;4.34;58.91;102712.78;5054544;28;20020;-70
2022/03/01 04:15:57;;;;;;;24.08;10.43;;;;;;;4.36;59.29;102699.91;5036589;28;20158;-72
2022/03/01 04:18:22;;;;;;;23.45;10.90;;;;;;;4.28;58.70;102706.31;5036621;28;20446;-73
2022/03/01 04:20:47;;;;;;;19.02;10.55;;;;;;;4.39;59.27;102704.81;5054468;28;20070;-71
2022/03/01 04:23:13;;;;;;;20.48;10.20;;;;;;;4.52;58.13;102700.56;5054334;28;20044;-69
2022/03/01 04:25:38;;;;;;;17.85;9.95;;;;;;;4.38;58.08;102693.78;5054414;28;20063;-71
2022/03/01 04:28:04;;;;;;;17.73;10.40;;;;;;;4.38;58.57;102703.19;5036424;28;20035;-70
2022/03/01 04:30:29;;;;;;;21.27;10.40;;;;;;;4.21;59.08;102704.28;5036428;28;20472;-71
2022/03/01 04:32:55;;;;;;;22.10;10.60;;;;;;;4.12;59.27;102717.66;5054210;28;20028;-71
2022/03/01 04:35:20;;;;;;;19.23;10.52;;;;;;;4.13;60.16;102714.16;5036129;28;20108;-71
2022/03/01 04:37:46;;;;;;;23.85;10.55;;;;;;;4.32;58.78;102714.66;5054140;28;20078;-71
2022/03/01 04:40:13;;;;;;;19.92;10.63;;;;;;;4.52;58.43;102718.50;5036207;28;20024;-71
2022/03/01 04:42:39;;;;;;;21.67;10.30;;;;;;;4.37;58.76;102697.22;5036241;28;20439;-71
2022/03/01 04:45:06;;;;;;;20.17;10.30;;;;;;;4.45;58.35;102701.88;5036033;28;20021;-71
2022/03/01 04:47:33;;;;;;;19.20;10.43;;;;;;;4.25;59.38;102693.72;5053888;28;20029;-71
2022/03/01 04:49:58;;;;;;;18.15;10.45;;;;;;;4.28;58.58;102701.19;5053972;28;20025;-71
2022/03/01 04:52:24;;;;;;;19.48;10.63;;;;;;;4.36;58.41;102690.47;5035932;28;20028;-70
2022/03/01 04:54:50;;;;;;;21.70;10.48;;;;;;;4.28;58.68;102687.59;5035793;28;20082;-70
2022/03/01 04:57:15;;;;;;;19.63;10.20;;;;;;;4.10;59.69;102693.91;5035773;28;20468;-70
2022/03/01 04:59:41;;;;;;;19.23;10.30;;;;;;;4.02;59.95;102690.06;5053710;28;20029;-70
2022/03/01 05:02:06;;;;;;;17.67;10.18;;;;;;;3.85;59.95;102687.75;5053688;28;20025;-70
2022/03/01 05:04:31;;;;;;;20.73;9.63;;;;;;;4.04;59.79;102685.69;5053548;28;20392;-70
2022/03/01 05:06:56;;;;;;;20.02;10.77;;;;;;;4.12;59.94;102685.22;5053479;28;20024;-70
2022/03/01 05:09:22;;;;;;;20.65;10.52;;;;;;;4.22;59.33;102680.31;5053508;28;20036;-70
2022/03/01 05:11:51;;;;;;;19.98;10.43;;;;;;;4.04;59.33;102646.50;5053517;28;20029;-70
2022/03/01 05:14:18;;;;;;;16.25;9.80;;;;;;;4.33;59.49;102687.31;5035623;28;20133;-70
2022/03/01 05:16:43;;;;;;;19.77;10.27;;;;;;;4.20;58.85;102682.97;5053349;28;20029;-72
2022/03/01 05:19:09;;;;;;;25.13;10.23;;;;;;;4.25;59.48;102680.13;5035477;28;20023;-71
2022/03/01 05:21:35;;;;;;;21.00;10.65;;;;;;;4.37;58.55;102681.88;5053374;28;20089;-70
2022/03/01 05:24:01;;;;;;;20.25;10.68;;;;;;;4.40;58.40;102681.69;5035554;28;20025;-71
2022/03/01 05:26:27;;;;;;;19.00;9.77;;;;;;;4.26;58.53;102671.53;5035375;28;20017;-71
2022/03/01 05:28:53;;;;;;;21.25;10.75;;;;;;;4.20;59.52;102680.44;5053300;28;20041;-71
2022/03/01 05:31:19;;;;;;;21.73;11.02;;;;;;;4.34;58.82;102676.94;5035387;28;20443;-71
2022/03/01 05:33:45;;;;;;;17.95;10.30;;;;;;;4.22;58.74;102683.69;5035448;28;20044;-71
2022/03/01 05:36:10;;;;;;;23.20;10.50;;;;;;;4.25;58.82;102677.56;5053042;28;20025;-71
2022/03/01 05:38:36;;;;;;;17.27;9.85;;;;;;;4.21;58.71;102676.13;5053073;28;20399;-71
2022/03/01 05:41:02;;;;;;;18.67;10.00;;;;;;;4.20;58.59;102675.31;5053087;28;20451;-71
2022/03/01 05:43:27;;;;;;;20.48;10.23;;;;;;;4.33;58.68;102680.44;5035206;28;20131;-71
2022/03/01 05:45:52;;;;;;;17.90;10.10;;;;;;;4.22;58.62;102670.88;5053362;28;20021;-71
2022/03/01 05:48:18;;;;;;;18.33;10.27;;;;;;;4.14;58.56;102675.69;5035050;28;20043;-71
2022/03/01 05:50:43;;;;;;;21.65;10.13;;;;;;;4.15;59.10;102679.09;5053072;28;20024;-71
2022/03/01 05:53:08;;;;;;;16.95;9.95;;;;;;;4.04;59.46;102672.09;5035096;28;20115;-71
2022/03/01 05:55:34;;;;;;;18.55;10.63;;;;;;;3.98;59.36;102664.81;5034849;28;20036;-71
2022/03/01 05:57:59;;;;;;;21.38;10.18;;;;;;;4.10;59.12;102673.44;5052933;28;20108;-71
2022/03/01 06:00:24;;;;;;;19.05;10.55;;;;;;;4.20;58.96;102670.19;5052944;28;20025;-71
2022/03/01 06:02:50;;;;;;;17.70;10.23;;;;;;;4.10;58.78;102678.53;5052834;28;20079;-70
2022/03/01 06:05:17;;;;;;;17.60;10.25;;;;;;;4.06;59.07;102683.88;5052678;28;20091;-70
2022/03/01 06:07:44;;;;;;;18.83;10.55;;;;;;;4.13;58.90;102678.34;5052763;28;20151;-71
2022/03/01 06:10:09;;;;;;;19.08;10.88;;;;;;;4.07;58.80;102677.00;5052813;28;20021;-72
2022/03/01 06:12:35;;;;;;;21.15;10.40;;;;;;;3.92;59.32;102675.44;5052779;28;20036;-72
2022/03/01 06:15:01;;;;;;;17.05;10.23;;;;;;;3.98;59.24;102685.25;5053582;28;20043;-71
2022/03/01 06:17:27;;;;;;;19.45;10.85;;;;;;;3.95;59.34;102683.72;5053016;28;20032;-72
2022/03/01 06:19:52;;;;;;;20.83;10.32;;;;;;;4.09;59.13;102682.84;5039276;28;20032;-70
2022/03/01 06:22:19;;;;;;;19.48;9.80;;;;;;;4.17;58.43;102682.34;5058289;28;20029;-70
2022/03/01 06:24:45;;;;;;;20.80;10.55;;;;;;;4.16;58.73;102689.19;5038762;28;20021;-70
2022/03/01 06:27:11;;;;;;;20.05;10.80;;;;;;;4.20;58.52;102693.22;5038716;28;20020;-70
2022/03/01 06:29:37;;;;;;;17.80;10.25;;;;;;;4.24;58.20;102697.22;5056718;28;20371;-72
2022/03/01 06:32:04;;;;;;;19.52;10.68;;;;;;;4.23;58.10;102697.28;5038573;28;20135;-70
2022/03/01 06:34:30;;;;;;;22.02;10.05;;;;;;;4.25;58.38;102698.84;5056442;28;20064;-71
2022/03/01 06:36:55;;;;;;;19.58;10.48;;;;;;;4.30;57.81;102699.38;5038627;28;20109;-71
2022/03/01 06:39:21;;;;;;;20.52;10.43;;;;;;;4.26;57.84;102697.94;5038489;28;20029;-71
2022/03/01 06:41:46;;;;;;;19.55;10.32;;;;;;;4.26;57.77;102712.50;5056433;28;20392;-70
2022/03/01 06:44:12;;;;;;;22.17;10.32;;;;;;;4.34;57.47;102712.78;5056278;28;20021;-72
2022/03/01 06:46:37;;;;;;;24.40;11.10;;;;;;;4.30;57.71;102713.91;5056218;28;20044;-72
2022/03/01 06:49:03;;;;;;;20.05;10.60;;;;;;;4.32;57.92;102719.78;5056180;28;20029;-71
2022/03/01 06:51:28;;;;;;;18.05;10.13;;;;;;;4.44;57.51;102733.50;5037965;28;20033;-72
2022/03/01 06:53:54;;;;;;;19.33;10.32;;;;;;;4.53;57.42;102733.72;5056044;28;20358;-72
2022/03/01 06:56:20;;;;;;;23.98;10.63;;;;;;;4.46;57.45;102732.50;5037065;28;20484;-72
2022/03/01 06:58:45;;;;;;;20.13;10.50;;;;;;;4.54;57.29;102726.88;5055697;28;20040;-72
2022/03/01 07:01:11;;;;;;;22.70;10.18;;;;;;;4.66;57.45;102725.25;5055959;28;20033;-70
2022/03/01 07:03:36;;;;;;;18.80;10.27;;;;;;;4.60;56.87;102730.78;5039039;28;20047;-72
2022/03/01 07:06:01;;;;;;;21.25;10.50;;;;;;;4.58;57.13;102730.06;5056706;28;20083;-71
2022/03/01 07:08:27;;;;;;;23.33;11.90;;;;;;;4.65;57.03;102718.50;5055793;28;20052;-71
2022/03/01 07:10:53;;;;;;;19.02;10.43;;;;;;;4.63;57.19;102730.56;5055766;28;20029;-71
2022/03/01 07:13:18;;;;;;;30.50;10.32;;;;;;;4.77;55.81;102727.94;5037684;28;20115;-71
2022/03/01 07:15:44;;;;;;;24.58;10.65;;;;;;;4.91;55.73;102734.69;5037618;28;20111;-71
2022/03/01 07:18:09;;;;;;;22.60;10.23;;;;;;;4.92;55.67;102729.50;5055608;28;20024;-71
2022/03/01 07:20:35;;;;;;;19.58;10.07;;;;;;;4.92;55.27;102732.06;5055513;28;20052;-71
2022/03/01 07:23:01;;;;;;;18.38;10.48;;;;;;;4.87;55.35;102730.72;5055424;28;20043;-71
2022/03/01 07:25:26;;;;;;;19.85;10.48;;;;;;;4.90;55.64;102741.56;5055371;28;20017;-73
2022/03/01 07:27:53;;;;;;;20.40;10.90;;;;;;;5.09;54.79;102745.47;5056537;28;20116;-72
2022/03/01 07:30:21;;;;;;;22.35;10.27;;;;;;;5.19;54.57;102756.75;5036292;28;20079;-71
2022/03/01 07:32:48;;;;;;;18.45;10.10;;;;;;;5.17;54.17;102748.34;5037353;28;20044;-71
2022/03/01 07:35:13;;;;;;;17.77;10.18;;;;;;;5.23;54.53;102747.91;5037305;28;20511;-71
2022/03/01 07:37:39;;;;;;;20.42;10.20;;;;;;;5.20;54.79;102735.31;5037689;28;20020;-70
2022/03/01 07:40:10;;;;;;;19.65;9.85;;;;;;;5.24;54.89;102731.63;5055405;28;20025;-72
2022/03/01 07:42:36;;;;;;;21.20;10.48;;;;;;;5.58;53.91;102729.31;5037138;28;20025;-71
2022/03/01 07:45:03;;;;;;;21.67;10.35;;;;;;;5.65;53.19;102733.09;5057023;28;20079;-73
2022/03/01 07:47:28;;;;;;;18.75;10.27;;;;;;;5.76;53.59;102748.56;5058463;28;20059;-71
2022/03/01 07:49:54;;;;;;;17.17;9.75;;;;;;;5.77;52.90;102755.31;5038178;28;20017;-71
2022/03/01 07:52:19;;;;;;;18.40;10.30;;;;;;;5.83;52.32;102752.31;5055147;28;20083;-72
2022/03/01 07:54:44;;;;;;;17.77;10.20;;;;;;;5.85;52.44;102758.19;5055102;28;20111;-74
2022/03/01 07:57:10;;;;;;;24.58;10.52;;;;;;;5.75;52.72;102764.03;5038570;28;20435;-70
2022/03/01 07:59:35;;;;;;;25.58;11.10;;;;;;;5.68;52.67;102768.78;5055462;28;20032;-71
2022/03/01 08:02:00;;;;;;;27.55;10.10;;;;;;;5.39;52.75;102745.16;5057755;28;20031;-73
2022/03/01 08:04:26;;;;;;;20.75;10.10;;;;;;;5.62;52.69;102756.41;5059361;28;20083;-76
2022/03/01 08:06:51;;;;;;;20.45;10.27;;;;;;;5.80;53.34;102764.56;5039774;28;20098;-70
2022/03/01 08:09:16;;;;;;;24.83;10.90;;;;;;;5.87;52.08;102765.78;5036731;28;20036;-71
2022/03/01 08:11:42;;;;;;;21.73;10.68;;;;;;;5.91;51.66;102768.94;5036550;28;20427;-71
2022/03/01 08:14:07;;;;;;;20.85;10.13;;;;;;;5.76;52.05;102768.28;5036495;28;20036;-70
2022/03/01 08:16:32;;;;;;;22.05;10.40;;;;;;;6.00;52.17;102769.13;5037162;28;20028;-71
2022/03/01 08:18:58;;;;;;;20.63;10.27;;;;;;;6.08;51.85;102773.75;5054233;28;20053;-72
2022/03/01 08:21:23;;;;;;;21.42;10.20;;;;;;;6.13;51.69;102770.84;5054766;28;20032;-71
2022/03/01 08:23:48;;;;;;;22.95;9.65;;;;;;;6.18;50.73;102779.03;5035645;28;20473;-72
2022/03/01 08:26:13;;;;;;;20.17;10.45;;;;;;;6.37;50.97;102783.69;5054074;28;20025;-71
2022/03/01 08:28:40;;;;;;;19.88;10.43;;;;;;;6.28;50.38;102782.59;5053400;28;20499;-72
2022/03/01 08:31:06;;;;;;;20.00;10.38;;;;;;;6.10;51.21;102774.47;5053598;28;20419;-71
2022/03/01 08:33:32;;;;;;;23.60;10.85;;;;;;;6.36;51.58;102771.75;5053242;28;20028;-71
2022/03/01 08:35:57;;;;;;;19.95;10.00;;;;;;;6.45;49.79;102778.81;5036047;28;20021;-72
2022/03/01 08:38:23;;;;;;;22.75;10.40;;;;;;;6.41;50.85;102777.38;5035622;28;20067;-71
2022/03/01 08:40:49;;;;;;;20.75;10.02;;;;;;;6.78;49.84;102781.47;5052626;28;20124;-70
2022/03/01 08:43:14;;;;;;;19.95;10.57;;;;;;;6.75;49.25;102791.19;5035556;28;20021;-73
2022/03/01 08:45:41;;;;;;;20.20;9.93;;;;;;;6.35;50.01;102788.09;5052866;28;20337;-72
2022/03/01 08:48:06;;;;;;;21.17;10.48;;;;;;;6.59;49.95;102781.22;5034976;28;20439;-72
2022/03/01 08:50:33;;;;;;;18.45;10.18;;;;;;;6.82;49.90;102774.38;5035042;28;20021;-71
2022/03/01 08:53:00;;;;;;;20.65;10.48;;;;;;;6.72;49.46;102792.22;5052358;28;20059;-71
2022/03/01 08:55:26;;;;;;;20.95;10.20;;;;;;;6.67;50.17;102803.75;5053692;28;20025;-72
2022/03/01 08:57:53;;;;;;;18.02;9.98;;;;;;;6.58;50.34;102810.38;5036283;28;20178;-71
2022/03/01 09:00:18;;;;;;;20.23;10.18;;;;;;;6.34;50.53;102807.84;5054077;28;20032;-71
2022/03/01 09:02:44;;;;;;;24.55;10.88;;;;;;;6.40;50.86;102804.00;5054326;28;20036;-71
2022/03/01 09:05:10;;;;;;;19.40;10.48;;;;;;;6.53;50.48;102797.03;5053327;28;20053;-73
2022/03/01 09:07:36;;;;;;;21.50;10.07;;;;;;;6.83;49.67;102794.00;5034137;28;20025;-71
2022/03/01 09:10:03;;;;;;;20.23;10.80;;;;;;;6.85;49.93;102801.59;5051737;28;20414;-72
2022/03/01 09:12:28;;;;;;;23.77;10.75;;;;;;;6.88;49.57;102807.34;5035480;28;20024;-71
2022/03/01 09:14:54;;;;;;;19.45;10.32;;;;;;;6.86;49.51;102798.09;5035264;28;20025;-72
2022/03/01 09:17:20;;;;;;;20.55;11.43;;;;;;;7.09;49.47;102798.97;5053355;28;20086;-72
2022/03/01 09:19:45;;;;;;;20.90;10.43;;;;;;;7.07;49.49;102801.63;5035273;28;20024;-72
2022/03/01 09:22:11;;;;;;;20.15;10.98;;;;;;;7.06;49.18;102809.47;5035130;28;20469;-72
2022/03/01 09:24:36;;;;;;;19.65;10.48;;;;;;;6.95;49.45;102805.94;5035367;28;20031;-72
2022/03/01 09:27:02;;;;;;;20.67;10.63;;;;;;;6.95;48.96;102808.50;5035240;28;20047;-72
2022/03/01 09:29:30;;;;;;;17.75;10.38;;;;;;;6.85;49.65;102794.72;5053261;28;20025;-72
2022/03/01 09:31:56;;;;;;;20.98;10.93;;;;;;;6.88;49.80;102801.38;5053006;28;20029;-72
2022/03/01 09:34:21;;;;;;;17.52;10.57;;;;;;;6.84;49.54;102805.91;5035102;28;20032;-72
2022/03/01 09:36:46;;;;;;;20.40;10.45;;;;;;;7.04;49.13;102811.34;5035073;28;20021;-72
2022/03/01 09:39:12;;;;;;;19.40;10.45;;;;;;;7.16;49.54;102813.00;5053150;28;20028;-72
2022/03/01 09:41:38;;;;;;;24.58;10.85;;;;;;;7.30;48.07;102811.97;5053034;28;20033;-72
2022/03/01 09:44:04;;;;;;;21.67;11.18;;;;;;;7.28;48.54;102785.53;5051403;28;20035;-71
2022/03/01 09:46:30;;;;;;;21.27;11.23;;;;;;;7.56;48.45;102797.94;5035174;28;20032;-72
2022/03/01 09:48:56;;;;;;;21.27;10.82;;;;;;;7.35;47.83;102810.69;5035434;28;20029;-72
2022/03/01 09:51:22;;;;;;;21.77;11.23;;;;;;;7.38;48.59;102799.34;5052838;28;20495;-71
2022/03/01 09:53:50;;;;;;;23.67;10.68;;;;;;;7.23;48.15;102809.84;5051934;28;20024;-72
2022/03/01 09:56:16;;;;;;;22.88;11.15;;;;;;;7.34;48.71;102801.34;5035005;28;20029;-73
2022/03/01 09:58:50;;;;;;;20.48;10.65;;;;;;;7.39;48.84;102817.25;5052758;28;20031;-73
2022/03/01 10:01:16;;;;;;;21.15;11.55;;;;;;;7.41;48.85;102812.78;5035022;28;20035;-71
2022/03/01 10:03:48;;;;;;;21.30;10.95;;;;;;;7.54;49.16;102824.72;5034917;28;20016;-71
2022/03/01 10:06:14;;;;;;;21.35;11.20;;;;;;;7.57;49.17;102825.31;5035025;28;20045;-72
2022/03/01 10:08:40;;;;;;;21.50;11.55;;;;;;;7.28;49.02;102827.53;5035017;28;20021;-72
2022/03/01 10:11:06;;;;;;;20.25;11.75;;;;;;;7.41;49.10;102828.22;5052754;28;20028;-71
2022/03/01 10:13:34;;;;;;;19.08;11.48;;;;;;;7.51;50.34;102835.25;5052703;28;20024;-72
2022/03/01 10:16:03;;;;;;;20.25;11.52;;;;;;;7.23;49.75;102832.19;5052762;28;20536;-72
2022/03/01 10:18:32;;;;;;;25.88;11.52;;;;;;;7.21;52.25;102834.03;5034688;28;20029;-71
2022/03/01 10:21:07;;;;;;;23.00;11.60;;;;;;;7.27;52.33;102843.06;5052675;28;20535;-72
2022/03/01 10:23:33;;;;;;;21.33;12.15;;;;;;;7.13;52.31;102837.19;5052986;28;20029;-72
2022/03/01 10:26:11;;;;;;;19.88;11.00;;;;;;;7.28;53.45;102834.41;5034856;28;20017;-73
2022/03/01 10:28:37;;;;;;;19.30;11.48;;;;;;;7.06;53.61;102801.78;5052673;28;20017;-72
2022/03/01 10:31:10;;;;;;;19.65;11.73;;;;;;;7.45;51.92;102832.22;5052534;28;20044;-72
2022/03/01 10:33:38;;;;;;;22.45;11.70;;;;;;;7.50;53.26;102829.28;5052521;28;20095;-73
2022/03/01 10:36:04;;;;;;;21.85;12.75;;;;;;;7.24;52.39;102821.78;5052414;28;20036;-71
2022/03/01 10:38:29;;;;;;;19.92;11.65;;;;;;;7.25;53.91;102825.19;5052514;28;20392;-71
2022/03/01 10:40:59;;;;;;;21.73;12.93;;;;;;;7.46;53.83;102822.75;5034714;28;20116;-71
2022/03/01 10:43:26;;;;;;;22.45;12.63;;;;;;;7.31;54.34;102829.88;5052272;28;20029;-72
2022/03/01 10:45:53;;;;;;;23.17;12.20;;;;;;;7.25;54.50;102820.03;5034615;28;20017;-71
2022/03/01 10:48:30;;;;;;;22.00;11.68;;;;;;;7.22;54.86;102828.81;5034078;28;20384;-71
2022/03/01 10:51:09;;;;;;;22.73;12.32;;;;;;;7.37;55.53;102834.53;5051361;28;20112;-71
2022/03/01 10:53:42;;;;;;;21.33;13.32;;;;;;;7.24;57.48;102829.47;5033299;28;20029;-71
2022/03/01 10:56:12;;;;;;;;;;;;;;;7.18;57.78;102836.84;5052475;28;20021;-71
2022/03/01 10:58:39;;;;;;;22.67;13.25;;;;;;;7.23;57.41;102833.00;5034487;28;19916;-71
2022/03/01 11:01:05;;;;;;;23.25;13.85;;;;;;;7.05;58.92;102831.81;5052071;28;20025;-71
2022/03/01 11:03:31;;;;;;;24.05;13.40;;;;;;;7.16;58.07;102828.41;5052139;28;20029;-71
2022/03/01 11:05:57;;;;;;;26.92;12.95;;;;;;;7.25;58.46;102830.31;5037201;28;20074;-71
2022/03/01 11:08:30;;;;;;;21.55;12.52;;;;;;;7.08;58.50;102831.56;5055780;28;20101;-71
2022/03/01 11:10:58;;;;;;;28.38;14.75;;;;;;;6.83;57.79;102836.88;5055773;28;20028;-72